sensor_id;sensor_type;location;lat;lon;timestamp;temperature;humidity
6098;DHT22;3077;50.922;6.584;2023-02-26T00:01:29;1.30;99.90
6098;DHT22;3077;50.922;6.584;2023-02-26T00:03:58;1.20;99.90
6098;DHT22;3077;50.922;6.584;2023-02-26T00:06:25;1.20;99.90
6098;DHT22;3077;50.922;6.584;2023-02-26T00:08:51;1.20;99.90
6098;DHT22;3077;50.922;6.584;2023-02-26T00:11:17;1.20;99.90
6098;DHT22;3077;50.922;6.584;2023-02-26T00:13:44;1.20;99.90
6098;DHT22;3077;50.922;6.584;2023-02-26T00:18:56;1.20;99.90
6098;DHT22;3077;50.922;6.584;2023-02-26T00:21:23;1.20;99.90
6098;DHT22;3077;50.922;6.584;2023-02-26T00:23:49;1.20;99.90
6098;DHT22;3077;50.922;6.584;2023-02-26T00:26:15;1.10;99.90
6098;DHT22;3077;50.922;6.584;2023-02-26T00:28:41;1.10;99.90
6098;DHT22;3077;50.922;6.584;2023-02-26T00:31:07;1.10;99.90
6098;DHT22;3077;50.922;6.584;2023-02-26T00:33:33;1.10;99.90
6098;DHT22;3077;50.922;6.584;2023-02-26T00:38:42;1.10;99.90
6098;DHT22;3077;50.922;6.584;2023-02-26T00:41:09;1.20;99.90
6098;DHT22;3077;50.922;6.584;2023-02-26T00:43:35;1.30;99.90
6098;DHT22;3077;50.922;6.584;2023-02-26T00:51:39;1.50;99.90
6098;DHT22;3077;50.922;6.584;2023-02-26T00:54:22;1.50;99.90
6098;DHT22;3077;50.922;6.584;2023-02-26T00:56:49;1.60;99.90
6098;DHT22;3077;50.922;6.584;2023-02-26T00:59:16;1.60;99.90
6098;DHT22;3077;50.922;6.584;2023-02-26T01:01:42;1.60;99.90
6098;DHT22;3077;50.922;6.584;2023-02-26T01:04:09;1.70;99.90
6098;DHT22;3077;50.922;6.584;2023-02-26T01:06:42;1.70;99.90
6098;DHT22;3077;50.922;6.584;2023-02-26T01:11:46;1.70;99.90
6098;DHT22;3077;50.922;6.584;2023-02-26T01:14:11;1.70;99.90
6098;DHT22;3077;50.922;6.584;2023-02-26T01:16:46;1.80;99.90
6098;DHT22;3077;50.922;6.584;2023-02-26T01:19:23;1.80;99.90
6098;DHT22;3077;50.922;6.584;2023-02-26T01:22:00;1.80;99.90
6098;DHT22;3077;50.922;6.584;2023-02-26T01:24:30;1.90;99.90
6098;DHT22;3077;50.922;6.584;2023-02-26T01:26:56;1.90;99.90
6098;DHT22;3077;50.922;6.584;2023-02-26T01:29:22;2.00;99.90
6098;DHT22;3077;50.922;6.584;2023-02-26T01:34:58;2.00;99.90
6098;DHT22;3077;50.922;6.584;2023-02-26T01:37:21;1.90;99.90
6098;DHT22;3077;50.922;6.584;2023-02-26T01:42:50;2.00;99.90
6098;DHT22;3077;50.922;6.584;2023-02-26T01:45:20;2.00;99.90
6098;DHT22;3077;50.922;6.584;2023-02-26T01:48:02;2.00;99.90
6098;DHT22;3077;50.922;6.584;2023-02-26T01:50:32;2.00;99.90
6098;DHT22;3077;50.922;6.584;2023-02-26T01:55:44;2.00;99.90
6098;DHT22;3077;50.922;6.584;2023-02-26T01:58:11;2.10;99.90
6098;DHT22;3077;50.922;6.584;2023-02-26T02:00:37;2.00;99.90
6098;DHT22;3077;50.922;6.584;2023-02-26T02:03:03;2.00;99.90
6098;DHT22;3077;50.922;6.584;2023-02-26T02:05:30;2.00;99.90
6098;DHT22;3077;50.922;6.584;2023-02-26T02:07:58;2.00;99.90
6098;DHT22;3077;50.922;6.584;2023-02-26T02:10:24;2.00;99.90
6098;DHT22;3077;50.922;6.584;2023-02-26T02:15:46;1.80;99.90
6098;DHT22;3077;50.922;6.584;2023-02-26T02:24:12;1.80;99.90
6098;DHT22;3077;50.922;6.584;2023-02-26T02:29:21;1.70;99.90
6098;DHT22;3077;50.922;6.584;2023-02-26T02:31:57;1.60;99.90
6098;DHT22;3077;50.922;6.584;2023-02-26T02:37:29;1.50;99.90
6098;DHT22;3077;50.922;6.584;2023-02-26T02:40:08;1.50;99.90
6098;DHT22;3077;50.922;6.584;2023-02-26T02:45:20;1.40;99.90
6098;DHT22;3077;50.922;6.584;2023-02-26T02:47:55;1.30;99.90
6098;DHT22;3077;50.922;6.584;2023-02-26T02:53:01;1.20;99.90
6098;DHT22;3077;50.922;6.584;2023-02-26T02:55:37;1.10;99.90
6098;DHT22;3077;50.922;6.584;2023-02-26T02:58:12;1.10;99.90
6098;DHT22;3077;50.922;6.584;2023-02-26T03:00:45;1.00;99.90
6098;DHT22;3077;50.922;6.584;2023-02-26T03:03:20;1.00;99.90
6098;DHT22;3077;50.922;6.584;2023-02-26T03:05:49;1.00;99.90
6098;DHT22;3077;50.922;6.584;2023-02-26T03:08:17;0.80;99.90
6098;DHT22;3077;50.922;6.584;2023-02-26T03:10:45;0.80;99.90
6098;DHT22;3077;50.922;6.584;2023-02-26T03:13:22;0.80;99.90
6098;DHT22;3077;50.922;6.584;2023-02-26T03:27:15;0.70;99.90
6098;DHT22;3077;50.922;6.584;2023-02-26T03:30:02;0.60;99.90
6098;DHT22;3077;50.922;6.584;2023-02-26T03:37:40;0.50;99.90
6098;DHT22;3077;50.922;6.584;2023-02-26T03:40:30;0.50;99.90
6098;DHT22;3077;50.922;6.584;2023-02-26T03:43:05;0.50;99.90
6098;DHT22;3077;50.922;6.584;2023-02-26T03:45:36;0.50;99.90
6098;DHT22;3077;50.922;6.584;2023-02-26T03:48:06;0.40;99.90
6098;DHT22;3077;50.922;6.584;2023-02-26T03:50:40;0.30;99.90
6098;DHT22;3077;50.922;6.584;2023-02-26T03:53:11;0.40;99.90
6098;DHT22;3077;50.922;6.584;2023-02-26T03:56:03;0.40;99.90
6098;DHT22;3077;50.922;6.584;2023-02-26T03:58:30;0.40;99.90
6098;DHT22;3077;50.922;6.584;2023-02-26T04:01:03;0.30;99.90
6098;DHT22;3077;50.922;6.584;2023-02-26T04:03:35;0.30;99.90
6098;DHT22;3077;50.922;6.584;2023-02-26T04:06:03;0.30;99.90
6098;DHT22;3077;50.922;6.584;2023-02-26T04:08:30;0.30;99.90
6098;DHT22;3077;50.922;6.584;2023-02-26T04:10:58;0.30;99.90
6098;DHT22;3077;50.922;6.584;2023-02-26T04:13:25;0.20;99.90
6098;DHT22;3077;50.922;6.584;2023-02-26T04:15:51;0.30;99.90
6098;DHT22;3077;50.922;6.584;2023-02-26T04:18:17;0.20;99.90
6098;DHT22;3077;50.922;6.584;2023-02-26T04:20:42;0.20;99.90
6098;DHT22;3077;50.922;6.584;2023-02-26T04:23:08;0.20;99.90
6098;DHT22;3077;50.922;6.584;2023-02-26T04:25:33;0.20;99.90
6098;DHT22;3077;50.922;6.584;2023-02-26T04:27:59;0.20;99.90
6098;DHT22;3077;50.922;6.584;2023-02-26T04:30:24;0.20;99.90
6098;DHT22;3077;50.922;6.584;2023-02-26T04:32:50;0.20;99.90
6098;DHT22;3077;50.922;6.584;2023-02-26T04:35:16;0.20;99.90
6098;DHT22;3077;50.922;6.584;2023-02-26T04:37:41;0.20;99.90
6098;DHT22;3077;50.922;6.584;2023-02-26T04:40:07;0.10;99.90
6098;DHT22;3077;50.922;6.584;2023-02-26T04:42:33;0.10;99.90
6098;DHT22;3077;50.922;6.584;2023-02-26T04:44:58;0.10;99.90
6098;DHT22;3077;50.922;6.584;2023-02-26T04:47:24;0.10;99.90
6098;DHT22;3077;50.922;6.584;2023-02-26T04:49:50;0.10;99.90
6098;DHT22;3077;50.922;6.584;2023-02-26T04:52:15;0.10;99.90
6098;DHT22;3077;50.922;6.584;2023-02-26T04:54:41;0.10;99.90
6098;DHT22;3077;50.922;6.584;2023-02-26T04:57:06;0.00;99.90
6098;DHT22;3077;50.922;6.584;2023-02-26T04:59:32;0.00;99.90
6098;DHT22;3077;50.922;6.584;2023-02-26T05:01:58;0.00;99.90
6098;DHT22;3077;50.922;6.584;2023-02-26T05:04:23;0.00;99.90
6098;DHT22;3077;50.922;6.584;2023-02-26T05:06:49;0.00;99.90
6098;DHT22;3077;50.922;6.584;2023-02-26T05:09:15;0.00;99.90
6098;DHT22;3077;50.922;6.584;2023-02-26T05:11:41;-0.10;99.90
6098;DHT22;3077;50.922;6.584;2023-02-26T05:14:06;0.00;99.90
6098;DHT22;3077;50.922;6.584;2023-02-26T05:16:32;0.00;99.90
6098;DHT22;3077;50.922;6.584;2023-02-26T05:18:58;0.00;99.90
6098;DHT22;3077;50.922;6.584;2023-02-26T05:21:23;0.00;99.90
6098;DHT22;3077;50.922;6.584;2023-02-26T05:23:49;0.00;99.90
6098;DHT22;3077;50.922;6.584;2023-02-26T05:26:14;0.00;99.90
6098;DHT22;3077;50.922;6.584;2023-02-26T05:28:40;-0.10;99.90
6098;DHT22;3077;50.922;6.584;2023-02-26T05:31:06;0.00;99.90
6098;DHT22;3077;50.922;6.584;2023-02-26T05:33:31;-0.10;99.90
6098;DHT22;3077;50.922;6.584;2023-02-26T05:35:57;-0.10;99.90
6098;DHT22;3077;50.922;6.584;2023-02-26T05:38:23;-0.10;99.90
6098;DHT22;3077;50.922;6.584;2023-02-26T05:40:48;-0.10;99.90
6098;DHT22;3077;50.922;6.584;2023-02-26T05:43:14;-0.10;99.90
6098;DHT22;3077;50.922;6.584;2023-02-26T05:45:40;0.00;99.90
6098;DHT22;3077;50.922;6.584;2023-02-26T05:48:05;-0.10;99.90
6098;DHT22;3077;50.922;6.584;2023-02-26T05:50:31;-0.10;99.90
6098;DHT22;3077;50.922;6.584;2023-02-26T05:52:57;-0.10;99.90
6098;DHT22;3077;50.922;6.584;2023-02-26T05:55:23;-0.10;99.90
6098;DHT22;3077;50.922;6.584;2023-02-26T05:57:49;-0.10;99.90
6098;DHT22;3077;50.922;6.584;2023-02-26T06:00:14;-0.10;99.90
6098;DHT22;3077;50.922;6.584;2023-02-26T06:02:41;-0.20;99.90
6098;DHT22;3077;50.922;6.584;2023-02-26T06:05:07;-0.20;99.90
6098;DHT22;3077;50.922;6.584;2023-02-26T06:07:33;-0.20;99.90
6098;DHT22;3077;50.922;6.584;2023-02-26T06:09:58;-0.30;99.90
6098;DHT22;3077;50.922;6.584;2023-02-26T06:12:24;-0.30;99.90
6098;DHT22;3077;50.922;6.584;2023-02-26T06:14:49;-0.30;99.90
6098;DHT22;3077;50.922;6.584;2023-02-26T06:17:15;-0.30;99.90
6098;DHT22;3077;50.922;6.584;2023-02-26T06:19:41;-0.30;99.90
6098;DHT22;3077;50.922;6.584;2023-02-26T06:22:06;-0.30;99.90
6098;DHT22;3077;50.922;6.584;2023-02-26T06:24:32;-0.30;99.90
6098;DHT22;3077;50.922;6.584;2023-02-26T06:26:57;-0.30;99.90
6098;DHT22;3077;50.922;6.584;2023-02-26T06:29:23;-0.30;99.90
6098;DHT22;3077;50.922;6.584;2023-02-26T06:31:49;-0.30;99.90
6098;DHT22;3077;50.922;6.584;2023-02-26T06:34:14;-0.30;99.90
6098;DHT22;3077;50.922;6.584;2023-02-26T06:36:40;-0.40;99.90
6098;DHT22;3077;50.922;6.584;2023-02-26T06:39:06;-0.40;99.90
6098;DHT22;3077;50.922;6.584;2023-02-26T06:41:32;-0.40;99.90
6098;DHT22;3077;50.922;6.584;2023-02-26T06:43:58;-0.40;99.90
6098;DHT22;3077;50.922;6.584;2023-02-26T06:46:24;-0.40;99.90
6098;DHT22;3077;50.922;6.584;2023-02-26T06:48:49;-0.40;99.90
6098;DHT22;3077;50.922;6.584;2023-02-26T06:51:15;-0.30;99.90
6098;DHT22;3077;50.922;6.584;2023-02-26T06:53:40;-0.30;99.90
6098;DHT22;3077;50.922;6.584;2023-02-26T06:56:06;-0.30;99.90
6098;DHT22;3077;50.922;6.584;2023-02-26T06:58:32;-0.30;99.90
6098;DHT22;3077;50.922;6.584;2023-02-26T07:00:57;-0.30;99.90
6098;DHT22;3077;50.922;6.584;2023-02-26T07:03:23;-0.30;99.90
6098;DHT22;3077;50.922;6.584;2023-02-26T07:05:49;-0.20;99.90
6098;DHT22;3077;50.922;6.584;2023-02-26T07:08:14;-0.20;99.90
6098;DHT22;3077;50.922;6.584;2023-02-26T07:10:40;-0.20;99.90
6098;DHT22;3077;50.922;6.584;2023-02-26T07:13:06;-0.20;99.90
6098;DHT22;3077;50.922;6.584;2023-02-26T07:15:32;-0.10;99.90
6098;DHT22;3077;50.922;6.584;2023-02-26T07:17:58;-0.10;99.90
6098;DHT22;3077;50.922;6.584;2023-02-26T07:20:26;0.00;99.90
6098;DHT22;3077;50.922;6.584;2023-02-26T07:22:52;0.10;99.90
6098;DHT22;3077;50.922;6.584;2023-02-26T07:25:18;0.10;99.90
6098;DHT22;3077;50.922;6.584;2023-02-26T07:27:43;0.10;99.90
6098;DHT22;3077;50.922;6.584;2023-02-26T07:30:09;0.20;99.90
6098;DHT22;3077;50.922;6.584;2023-02-26T07:32:35;0.20;99.90
6098;DHT22;3077;50.922;6.584;2023-02-26T07:35:01;0.30;99.90
6098;DHT22;3077;50.922;6.584;2023-02-26T07:37:26;0.40;99.90
6098;DHT22;3077;50.922;6.584;2023-02-26T07:39:53;0.30;99.90
6098;DHT22;3077;50.922;6.584;2023-02-26T07:42:20;0.40;99.90
6098;DHT22;3077;50.922;6.584;2023-02-26T07:44:45;0.40;99.90
6098;DHT22;3077;50.922;6.584;2023-02-26T07:47:11;0.50;99.90
6098;DHT22;3077;50.922;6.584;2023-02-26T07:49:37;0.60;99.90
6098;DHT22;3077;50.922;6.584;2023-02-26T07:52:03;0.60;99.90
6098;DHT22;3077;50.922;6.584;2023-02-26T07:54:28;0.60;99.90
6098;DHT22;3077;50.922;6.584;2023-02-26T07:56:54;0.60;99.90
6098;DHT22;3077;50.922;6.584;2023-02-26T07:59:19;0.60;99.90
6098;DHT22;3077;50.922;6.584;2023-02-26T08:01:45;0.70;99.90
6098;DHT22;3077;50.922;6.584;2023-02-26T08:04:11;0.70;99.90
6098;DHT22;3077;50.922;6.584;2023-02-26T08:06:36;0.80;99.90
6098;DHT22;3077;50.922;6.584;2023-02-26T08:09:03;0.90;99.90
6098;DHT22;3077;50.922;6.584;2023-02-26T08:11:28;0.90;99.90
6098;DHT22;3077;50.922;6.584;2023-02-26T08:13:54;1.00;99.90
6098;DHT22;3077;50.922;6.584;2023-02-26T08:16:20;1.10;99.90
6098;DHT22;3077;50.922;6.584;2023-02-26T08:18:46;1.20;99.90
6098;DHT22;3077;50.922;6.584;2023-02-26T08:21:11;1.20;99.90
6098;DHT22;3077;50.922;6.584;2023-02-26T08:23:38;1.20;99.90
6098;DHT22;3077;50.922;6.584;2023-02-26T08:26:06;1.20;99.90
6098;DHT22;3077;50.922;6.584;2023-02-26T08:28:33;1.10;99.90
6098;DHT22;3077;50.922;6.584;2023-02-26T08:30:59;1.20;99.90
6098;DHT22;3077;50.922;6.584;2023-02-26T08:33:24;1.30;99.90
6098;DHT22;3077;50.922;6.584;2023-02-26T08:35:50;1.40;99.90
6098;DHT22;3077;50.922;6.584;2023-02-26T08:38:16;1.60;99.90
6098;DHT22;3077;50.922;6.584;2023-02-26T08:40:42;1.60;99.90
6098;DHT22;3077;50.922;6.584;2023-02-26T08:43:08;1.60;99.90
6098;DHT22;3077;50.922;6.584;2023-02-26T08:45:36;1.70;99.90
6098;DHT22;3077;50.922;6.584;2023-02-26T08:48:01;1.70;99.90
6098;DHT22;3077;50.922;6.584;2023-02-26T08:50:27;1.70;99.90
6098;DHT22;3077;50.922;6.584;2023-02-26T08:52:53;1.70;99.90
6098;DHT22;3077;50.922;6.584;2023-02-26T08:55:19;1.70;99.90
6098;DHT22;3077;50.922;6.584;2023-02-26T08:57:44;1.80;99.90
6098;DHT22;3077;50.922;6.584;2023-02-26T09:00:10;1.90;99.90
6098;DHT22;3077;50.922;6.584;2023-02-26T09:02:37;1.90;99.90
6098;DHT22;3077;50.922;6.584;2023-02-26T09:05:03;2.10;99.90
6098;DHT22;3077;50.922;6.584;2023-02-26T09:07:29;2.20;99.90
6098;DHT22;3077;50.922;6.584;2023-02-26T09:09:54;2.20;99.90
6098;DHT22;3077;50.922;6.584;2023-02-26T09:12:20;2.40;99.90
6098;DHT22;3077;50.922;6.584;2023-02-26T09:14:46;2.50;99.90
6098;DHT22;3077;50.922;6.584;2023-02-26T09:17:11;2.60;99.90
6098;DHT22;3077;50.922;6.584;2023-02-26T09:19:37;2.70;99.90
6098;DHT22;3077;50.922;6.584;2023-02-26T09:22:03;2.90;99.90
6098;DHT22;3077;50.922;6.584;2023-02-26T09:24:29;3.00;99.90
6098;DHT22;3077;50.922;6.584;2023-02-26T09:26:54;2.90;99.90
6098;DHT22;3077;50.922;6.584;2023-02-26T09:29:20;3.00;99.90
6098;DHT22;3077;50.922;6.584;2023-02-26T09:31:46;3.10;99.90
6098;DHT22;3077;50.922;6.584;2023-02-26T09:34:11;3.30;99.90
6098;DHT22;3077;50.922;6.584;2023-02-26T09:36:38;3.30;99.90
6098;DHT22;3077;50.922;6.584;2023-02-26T09:39:04;3.30;99.90
6098;DHT22;3077;50.922;6.584;2023-02-26T09:41:39;3.40;99.90
6098;DHT22;3077;50.922;6.584;2023-02-26T09:44:11;3.30;99.90
6098;DHT22;3077;50.922;6.584;2023-02-26T09:49:31;3.30;99.90
6098;DHT22;3077;50.922;6.584;2023-02-26T09:54:38;3.40;99.90
6098;DHT22;3077;50.922;6.584;2023-02-26T09:57:08;3.30;99.90
6098;DHT22;3077;50.922;6.584;2023-02-26T09:59:36;3.30;99.90
6098;DHT22;3077;50.922;6.584;2023-02-26T10:02:32;3.20;99.90
6098;DHT22;3077;50.922;6.584;2023-02-26T10:07:57;3.40;99.90
6098;DHT22;3077;50.922;6.584;2023-02-26T10:13:28;3.60;99.90
6098;DHT22;3077;50.922;6.584;2023-02-26T10:16:00;3.80;99.90
6098;DHT22;3077;50.922;6.584;2023-02-26T10:18:31;4.00;99.90
6098;DHT22;3077;50.922;6.584;2023-02-26T10:21:06;4.30;99.90
6098;DHT22;3077;50.922;6.584;2023-02-26T10:23:43;4.40;99.90
6098;DHT22;3077;50.922;6.584;2023-02-26T10:26:18;4.50;99.90
6098;DHT22;3077;50.922;6.584;2023-02-26T10:31:41;4.40;99.90
6098;DHT22;3077;50.922;6.584;2023-02-26T10:39:59;4.70;99.90
6098;DHT22;3077;50.922;6.584;2023-02-26T10:42:42;4.70;99.90
6098;DHT22;3077;50.922;6.584;2023-02-26T10:48:10;4.70;99.90
6098;DHT22;3077;50.922;6.584;2023-02-26T10:50:45;4.60;99.90
6098;DHT22;3077;50.922;6.584;2023-02-26T10:53:12;4.60;99.90
6098;DHT22;3077;50.922;6.584;2023-02-26T10:58:26;4.80;99.90
6098;DHT22;3077;50.922;6.584;2023-02-26T11:00:53;4.60;99.90
6098;DHT22;3077;50.922;6.584;2023-02-26T11:03:33;4.60;99.90
6098;DHT22;3077;50.922;6.584;2023-02-26T11:06:00;4.60;99.90
6098;DHT22;3077;50.922;6.584;2023-02-26T11:08:32;4.80;99.90
6098;DHT22;3077;50.922;6.584;2023-02-26T11:11:01;5.00;99.90
6098;DHT22;3077;50.922;6.584;2023-02-26T11:13:32;5.10;99.90
6098;DHT22;3077;50.922;6.584;2023-02-26T11:16:02;5.40;99.90
6098;DHT22;3077;50.922;6.584;2023-02-26T11:18:39;5.50;99.90
6098;DHT22;3077;50.922;6.584;2023-02-26T11:21:06;5.70;99.90
6098;DHT22;3077;50.922;6.584;2023-02-26T11:23:33;5.80;99.90
6098;DHT22;3077;50.922;6.584;2023-02-26T11:26:02;5.90;99.90
6098;DHT22;3077;50.922;6.584;2023-02-26T11:28:47;5.90;99.20
6098;DHT22;3077;50.922;6.584;2023-02-26T11:31:23;5.80;98.80
6098;DHT22;3077;50.922;6.584;2023-02-26T11:34:03;5.70;96.70
6098;DHT22;3077;50.922;6.584;2023-02-26T11:36:31;5.60;97.10
6098;DHT22;3077;50.922;6.584;2023-02-26T11:41:28;5.50;97.20
6098;DHT22;3077;50.922;6.584;2023-02-26T11:44:04;5.50;94.90
6098;DHT22;3077;50.922;6.584;2023-02-26T11:46:31;5.40;95.00
6098;DHT22;3077;50.922;6.584;2023-02-26T11:49:00;5.50;95.40
6098;DHT22;3077;50.922;6.584;2023-02-26T11:51:28;5.80;97.30
6098;DHT22;3077;50.922;6.584;2023-02-26T11:53:56;6.70;93.40
6098;DHT22;3077;50.922;6.584;2023-02-26T11:56:40;7.60;83.10
6098;DHT22;3077;50.922;6.584;2023-02-26T11:59:19;8.40;70.70
6098;DHT22;3077;50.922;6.584;2023-02-26T12:01:46;8.90;52.80
6098;DHT22;3077;50.922;6.584;2023-02-26T12:04:14;9.70;53.50
6098;DHT22;3077;50.922;6.584;2023-02-26T12:06:40;10.70;51.20
6098;DHT22;3077;50.922;6.584;2023-02-26T12:09:13;11.60;42.80
6098;DHT22;3077;50.922;6.584;2023-02-26T12:20:01;10.40;20.50
6098;DHT22;3077;50.922;6.584;2023-02-26T12:28:37;7.10;45.80
6098;DHT22;3077;50.922;6.584;2023-02-26T12:34:15;6.80;39.30
6098;DHT22;3077;50.922;6.584;2023-02-26T12:42:51;6.10;41.80
6098;DHT22;3077;50.922;6.584;2023-02-26T13:13:31;9.70;28.90
6098;DHT22;3077;50.922;6.584;2023-02-26T13:16:13;9.60;20.50
6098;DHT22;3077;50.922;6.584;2023-02-26T13:19:03;10.10;21.20
6098;DHT22;3077;50.922;6.584;2023-02-26T13:21:35;11.10;18.40
6098;DHT22;3077;50.922;6.584;2023-02-26T13:24:22;11.60;12.00
6098;DHT22;3077;50.922;6.584;2023-02-26T13:26:49;12.30;12.60
6098;DHT22;3077;50.922;6.584;2023-02-26T13:29:17;13.00;9.60
6098;DHT22;3077;50.922;6.584;2023-02-26T13:35:15;14.00;6.10
6098;DHT22;3077;50.922;6.584;2023-02-26T13:45:22;12.80;4.40
6098;DHT22;3077;50.922;6.584;2023-02-26T13:53:47;11.10;5.20
6098;DHT22;3077;50.922;6.584;2023-02-26T13:56:19;10.60;7.90
6098;DHT22;3077;50.922;6.584;2023-02-26T13:59:37;10.50;9.70
6098;DHT22;3077;50.922;6.584;2023-02-26T14:01:47;11.00;10.00
6098;DHT22;3077;50.922;6.584;2023-02-26T14:06:45;11.50;6.00
6098;DHT22;3077;50.922;6.584;2023-02-26T14:19:30;12.80;7.40
6098;DHT22;3077;50.922;6.584;2023-02-26T14:24:51;13.40;5.90
6098;DHT22;3077;50.922;6.584;2023-02-26T14:32:44;14.00;2.90
6098;DHT22;3077;50.922;6.584;2023-02-26T14:37:43;14.80;2.70
6098;DHT22;3077;50.922;6.584;2023-02-26T14:40:19;14.30;1.00
6098;DHT22;3077;50.922;6.584;2023-02-26T14:42:50;12.70;1.40
6098;DHT22;3077;50.922;6.584;2023-02-26T14:47:43;13.60;3.60
6098;DHT22;3077;50.922;6.584;2023-02-26T14:50:16;14.20;1.00
6098;DHT22;3077;50.922;6.584;2023-02-26T14:53:03;14.60;1.00
6098;DHT22;3077;50.922;6.584;2023-02-26T14:56:21;15.30;1.00
6098;DHT22;3077;50.922;6.584;2023-02-26T15:07:38;16.50;1.00
6098;DHT22;3077;50.922;6.584;2023-02-26T15:15:40;15.40;1.00
6098;DHT22;3077;50.922;6.584;2023-02-26T15:23:57;14.40;1.00
6098;DHT22;3077;50.922;6.584;2023-02-26T15:26:34;14.90;1.00
6098;DHT22;3077;50.922;6.584;2023-02-26T15:29:04;15.10;1.00
6098;DHT22;3077;50.922;6.584;2023-02-26T15:31:35;15.10;1.00
6098;DHT22;3077;50.922;6.584;2023-02-26T15:34:01;15.10;1.00
6098;DHT22;3077;50.922;6.584;2023-02-26T15:36:28;15.20;1.00
6098;DHT22;3077;50.922;6.584;2023-02-26T15:38:57;15.60;1.00
6098;DHT22;3077;50.922;6.584;2023-02-26T15:41:29;15.70;1.00
6098;DHT22;3077;50.922;6.584;2023-02-26T15:43:58;15.90;1.00
6098;DHT22;3077;50.922;6.584;2023-02-26T15:46:32;16.40;1.00
6098;DHT22;3077;50.922;6.584;2023-02-26T15:49:26;16.70;1.00
6098;DHT22;3077;50.922;6.584;2023-02-26T15:51:54;16.60;1.00
6098;DHT22;3077;50.922;6.584;2023-02-26T15:54:23;16.30;1.00
6098;DHT22;3077;50.922;6.584;2023-02-26T15:56:50;16.40;1.00
6098;DHT22;3077;50.922;6.584;2023-02-26T15:59:23;16.70;1.00
6098;DHT22;3077;50.922;6.584;2023-02-26T16:01:50;16.50;1.00
6098;DHT22;3077;50.922;6.584;2023-02-26T16:04:18;16.30;1.00
6098;DHT22;3077;50.922;6.584;2023-02-26T16:06:51;16.30;1.00
6098;DHT22;3077;50.922;6.584;2023-02-26T16:09:20;16.50;1.00
6098;DHT22;3077;50.922;6.584;2023-02-26T16:11:52;16.20;1.00
6098;DHT22;3077;50.922;6.584;2023-02-26T16:14:32;16.10;1.00
6098;DHT22;3077;50.922;6.584;2023-02-26T16:17:00;16.00;1.00
6098;DHT22;3077;50.922;6.584;2023-02-26T16:19:33;15.50;1.00
6098;DHT22;3077;50.922;6.584;2023-02-26T16:22:14;15.50;1.00
6098;DHT22;3077;50.922;6.584;2023-02-26T16:24:40;15.30;1.00
6098;DHT22;3077;50.922;6.584;2023-02-26T16:27:08;14.70;1.00
6098;DHT22;3077;50.922;6.584;2023-02-26T16:29:35;14.20;1.00
6098;DHT22;3077;50.922;6.584;2023-02-26T16:32:03;13.50;1.00
6098;DHT22;3077;50.922;6.584;2023-02-26T16:34:50;13.30;1.00
6098;DHT22;3077;50.922;6.584;2023-02-26T16:47:43;11.50;1.00
6098;DHT22;3077;50.922;6.584;2023-02-26T16:50:18;11.50;1.00
6098;DHT22;3077;50.922;6.584;2023-02-26T16:52:57;11.50;1.00
6098;DHT22;3077;50.922;6.584;2023-02-26T16:55:25;11.10;1.00
6098;DHT22;3077;50.922;6.584;2023-02-26T16:57:54;10.70;1.00
6098;DHT22;3077;50.922;6.584;2023-02-26T17:00:23;10.50;1.00
6098;DHT22;3077;50.922;6.584;2023-02-26T17:03:11;10.10;1.00
6098;DHT22;3077;50.922;6.584;2023-02-26T17:05:41;9.60;1.90
6098;DHT22;3077;50.922;6.584;2023-02-26T17:08:19;9.10;2.80
6098;DHT22;3077;50.922;6.584;2023-02-26T17:10:48;8.60;3.50
6098;DHT22;3077;50.922;6.584;2023-02-26T17:13:23;8.00;4.10
6098;DHT22;3077;50.922;6.584;2023-02-26T17:15:49;7.80;5.80
6098;DHT22;3077;50.922;6.584;2023-02-26T17:18:16;7.60;7.20
6098;DHT22;3077;50.922;6.584;2023-02-26T17:20:42;7.20;6.90
6098;DHT22;3077;50.922;6.584;2023-02-26T17:23:15;7.00;7.70
6098;DHT22;3077;50.922;6.584;2023-02-26T17:25:46;6.70;8.70
6098;DHT22;3077;50.922;6.584;2023-02-26T17:28:21;6.50;9.60
6098;DHT22;3077;50.922;6.584;2023-02-26T17:30:47;6.20;10.60
6098;DHT22;3077;50.922;6.584;2023-02-26T17:33:13;6.10;11.70
6098;DHT22;3077;50.922;6.584;2023-02-26T17:35:39;5.90;12.80
6098;DHT22;3077;50.922;6.584;2023-02-26T17:38:05;5.60;14.10
6098;DHT22;3077;50.922;6.584;2023-02-26T17:40:34;5.50;15.70
6098;DHT22;3077;50.922;6.584;2023-02-26T17:43:01;5.30;16.90
6098;DHT22;3077;50.922;6.584;2023-02-26T17:45:29;5.70;17.90
6098;DHT22;3077;50.922;6.584;2023-02-26T17:47:55;5.20;18.10
6098;DHT22;3077;50.922;6.584;2023-02-26T17:50:45;5.10;19.70
6098;DHT22;3077;50.922;6.584;2023-02-26T17:53:12;5.00;21.20
6098;DHT22;3077;50.922;6.584;2023-02-26T17:55:38;5.00;21.80
6098;DHT22;3077;50.922;6.584;2023-02-26T17:58:06;4.90;22.70
6098;DHT22;3077;50.922;6.584;2023-02-26T18:00:32;4.90;24.30
6098;DHT22;3077;50.922;6.584;2023-02-26T18:03:04;4.90;25.20
6098;DHT22;3077;50.922;6.584;2023-02-26T18:05:30;4.90;25.80
6098;DHT22;3077;50.922;6.584;2023-02-26T18:07:57;5.00;26.30
6098;DHT22;3077;50.922;6.584;2023-02-26T18:10:23;5.00;27.50
6098;DHT22;3077;50.922;6.584;2023-02-26T18:12:49;5.00;27.90
6098;DHT22;3077;50.922;6.584;2023-02-26T18:15:15;5.00;28.10
6098;DHT22;3077;50.922;6.584;2023-02-26T18:17:41;5.00;29.20
6098;DHT22;3077;50.922;6.584;2023-02-26T18:20:15;5.00;29.60
6098;DHT22;3077;50.922;6.584;2023-02-26T18:22:41;5.00;30.60
6098;DHT22;3077;50.922;6.584;2023-02-26T18:25:07;5.00;32.00
6098;DHT22;3077;50.922;6.584;2023-02-26T18:27:33;5.00;32.20
6098;DHT22;3077;50.922;6.584;2023-02-26T18:29:58;5.00;32.90
6098;DHT22;3077;50.922;6.584;2023-02-26T18:32:25;5.00;32.60
6098;DHT22;3077;50.922;6.584;2023-02-26T18:34:52;6.30;35.20
6098;DHT22;3077;50.922;6.584;2023-02-26T18:37:20;4.90;34.60
6098;DHT22;3077;50.922;6.584;2023-02-26T18:39:47;4.80;34.90
6098;DHT22;3077;50.922;6.584;2023-02-26T18:44:46;4.70;37.30
6098;DHT22;3077;50.922;6.584;2023-02-26T18:47:11;4.70;37.90
6098;DHT22;3077;50.922;6.584;2023-02-26T18:49:37;4.70;39.10
6098;DHT22;3077;50.922;6.584;2023-02-26T18:52:03;4.60;40.40
6098;DHT22;3077;50.922;6.584;2023-02-26T18:54:28;4.60;41.50
6098;DHT22;3077;50.922;6.584;2023-02-26T18:56:54;4.60;42.50
6098;DHT22;3077;50.922;6.584;2023-02-26T18:59:20;4.50;44.50
6098;DHT22;3077;50.922;6.584;2023-02-26T19:01:45;4.50;46.70
6098;DHT22;3077;50.922;6.584;2023-02-26T19:04:12;4.50;47.90
6098;DHT22;3077;50.922;6.584;2023-02-26T19:06:38;4.50;50.00
6098;DHT22;3077;50.922;6.584;2023-02-26T19:09:03;4.40;73.50
6098;DHT22;3077;50.922;6.584;2023-02-26T19:11:30;4.40;57.20
6098;DHT22;3077;50.922;6.584;2023-02-26T19:13:56;4.40;63.80
6098;DHT22;3077;50.922;6.584;2023-02-26T19:16:22;4.40;65.70
6098;DHT22;3077;50.922;6.584;2023-02-26T19:18:49;4.20;84.70
6098;DHT22;3077;50.922;6.584;2023-02-26T19:21:15;4.30;68.50
6098;DHT22;3077;50.922;6.584;2023-02-26T19:23:40;4.20;67.00
6098;DHT22;3077;50.922;6.584;2023-02-26T19:26:06;4.30;67.80
6098;DHT22;3077;50.922;6.584;2023-02-26T19:28:33;4.20;68.80
6098;DHT22;3077;50.922;6.584;2023-02-26T19:30:59;4.20;70.80
6098;DHT22;3077;50.922;6.584;2023-02-26T19:33:24;4.10;73.40
6098;DHT22;3077;50.922;6.584;2023-02-26T19:35:51;4.00;76.30
6098;DHT22;3077;50.922;6.584;2023-02-26T19:38:16;4.00;77.00
6098;DHT22;3077;50.922;6.584;2023-02-26T19:40:42;4.00;78.50
6098;DHT22;3077;50.922;6.584;2023-02-26T19:43:08;3.90;79.80
6098;DHT22;3077;50.922;6.584;2023-02-26T19:45:34;3.80;78.70
6098;DHT22;3077;50.922;6.584;2023-02-26T19:48:00;3.80;81.60
6098;DHT22;3077;50.922;6.584;2023-02-26T19:50:25;3.70;83.60
6098;DHT22;3077;50.922;6.584;2023-02-26T19:52:52;3.80;87.50
6098;DHT22;3077;50.922;6.584;2023-02-26T19:55:17;3.70;89.80
6098;DHT22;3077;50.922;6.584;2023-02-26T19:57:43;3.70;91.80
6098;DHT22;3077;50.922;6.584;2023-02-26T20:00:10;3.70;93.10
6098;DHT22;3077;50.922;6.584;2023-02-26T20:02:37;3.60;93.40